createdAt,value
2017-07-29T00:01:28.315Z,80.80
2017-07-29T00:03:57.381Z,81.14
2017-07-29T00:06:26.443Z,81.52
2017-07-29T00:08:55.492Z,81.38
2017-07-29T00:11:24.562Z,81.16
2017-07-29T00:13:53.608Z,81.05
2017-07-29T00:16:22.671Z,80.89
2017-07-29T00:18:51.734Z,81.05
2017-07-29T00:21:20.799Z,80.31
2017-07-29T00:23:49.880Z,81.06
2017-07-29T00:26:18.920Z,81.12
2017-07-29T00:28:47.985Z,80.79
2017-07-29T00:31:17.040Z,80.61
2017-07-29T00:33:46.118Z,80.68
2017-07-29T00:36:15.212Z,80.99
2017-07-29T00:38:44.289Z,81.10
2017-07-29T00:41:13.336Z,80.96
2017-07-29T00:43:42.375Z,81.08
2017-07-29T00:46:11.444Z,80.60
2017-07-29T00:48:40.503Z,80.74
2017-07-29T00:51:09.606Z,80.70
2017-07-29T00:53:38.637Z,80.37
2017-07-29T00:56:07.729Z,80.44
2017-07-29T00:58:36.774Z,80.40
2017-07-29T01:01:05.868Z,80.21
2017-07-29T01:03:34.903Z,79.59
2017-07-29T01:06:04.004Z,79.88
2017-07-29T01:08:33.105Z,79.73
2017-07-29T01:11:02.162Z,79.47
2017-07-29T01:13:31.214Z,79.89
2017-07-29T01:16:00.267Z,79.39
2017-07-29T01:18:29.323Z,79.36
2017-07-29T01:20:58.392Z,79.23
2017-07-29T01:23:27.432Z,78.27
2017-07-29T01:25:56.514Z,78.96
2017-07-29T01:28:25.548Z,79.06
2017-07-29T01:30:54.637Z,78.53
2017-07-29T01:33:23.685Z,78.37
2017-07-29T01:35:52.728Z,78.88
2017-07-29T01:38:22.031Z,78.27
2017-07-29T01:40:51.063Z,78.32
2017-07-29T01:43:20.108Z,78.12
2017-07-29T01:45:49.172Z,77.88
2017-07-29T01:48:18.242Z,78.40
2017-07-29T01:50:47.290Z,77.86
2017-07-29T01:53:16.364Z,77.91
2017-07-29T01:55:45.460Z,77.89
2017-07-29T01:58:14.523Z,77.00
2017-07-29T02:00:43.595Z,76.78
2017-07-29T02:03:12.679Z,76.78
2017-07-29T02:05:41.750Z,76.57
2017-07-29T02:08:10.840Z,76.29
2017-07-29T02:10:39.887Z,76.06
2017-07-29T02:13:08.959Z,75.51
2017-07-29T02:15:38.003Z,75.48
2017-07-29T02:18:07.040Z,75.41
2017-07-29T02:20:36.112Z,75.40
2017-07-29T02:23:05.187Z,74.67
2017-07-29T02:25:34.276Z,74.23
2017-07-29T02:28:03.353Z,74.28
2017-07-29T02:30:32.414Z,73.59
2017-07-29T02:33:01.480Z,73.93
2017-07-29T02:35:30.592Z,73.59
2017-07-29T02:37:59.647Z,73.41
2017-07-29T02:40:28.688Z,73.16
2017-07-29T02:42:57.763Z,72.74
2017-07-29T02:45:26.821Z,72.47
2017-07-29T02:47:55.873Z,72.00
2017-07-29T02:50:24.949Z,72.22
2017-07-29T02:52:53.980Z,72.24
2017-07-29T02:55:23.025Z,71.71
2017-07-29T02:57:52.112Z,71.55
2017-07-29T03:00:21.165Z,71.93
2017-07-29T03:02:50.223Z,71.45
2017-07-29T03:05:19.281Z,71.41
2017-07-29T03:07:48.354Z,71.03
2017-07-29T03:10:17.434Z,70.84
2017-07-29T03:12:46.524Z,71.15
2017-07-29T03:15:15.577Z,70.67
2017-07-29T03:17:44.649Z,70.80
2017-07-29T03:20:13.744Z,70.77
2017-07-29T03:22:42.807Z,70.67
2017-07-29T03:25:11.863Z,70.97
2017-07-29T03:27:40.908Z,70.85
2017-07-29T03:30:10.033Z,70.81
2017-07-29T03:32:39.100Z,70.51
2017-07-29T03:35:08.984Z,70.98
2017-07-29T03:37:38.055Z,70.62
2017-07-29T03:40:07.323Z,70.51
2017-07-29T03:42:36.373Z,70.26
2017-07-29T03:45:05.435Z,70.21
2017-07-29T03:47:34.487Z,70.42
2017-07-29T03:50:03.590Z,70.07
2017-07-29T03:52:32.643Z,69.82
2017-07-29T03:55:01.705Z,69.68
2017-07-29T03:57:30.751Z,70.00
2017-07-29T03:59:59.799Z,69.95
2017-07-29T04:02:28.853Z,69.97
2017-07-29T04:04:57.904Z,70.31
2017-07-29T04:07:26.954Z,69.88
2017-07-29T04:09:56.025Z,69.61
2017-07-29T04:12:25.092Z,69.65
2017-07-29T04:14:54.135Z,69.30
2017-07-29T04:17:23.215Z,69.91
2017-07-29T04:19:52.254Z,69.39
2017-07-29T04:22:21.319Z,69.58
2017-07-29T04:24:50.504Z,69.88
2017-07-29T04:27:19.560Z,69.24
2017-07-29T04:29:48.644Z,69.48
2017-07-29T04:32:17.703Z,69.62
2017-07-29T04:34:46.751Z,69.11
2017-07-29T04:37:15.859Z,69.28
2017-07-29T04:39:44.916Z,68.73
2017-07-29T04:42:13.979Z,68.71
2017-07-29T04:44:43.035Z,68.99
2017-07-29T04:47:12.145Z,68.83
2017-07-29T04:49:41.166Z,68.90
2017-07-29T04:52:10.226Z,68.51
2017-07-29T04:54:39.272Z,68.72
2017-07-29T04:57:08.366Z,68.66
2017-07-29T04:59:37.399Z,68.12
2017-07-29T05:02:06.657Z,68.60
2017-07-29T05:04:35.682Z,68.39
2017-07-29T05:07:04.743Z,68.27
2017-07-29T05:09:33.804Z,68.15
2017-07-29T05:12:02.871Z,68.50
2017-07-29T05:14:31.925Z,68.06
2017-07-29T05:17:00.996Z,68.25
2017-07-29T05:19:30.055Z,68.25
2017-07-29T05:21:59.108Z,67.96
2017-07-29T05:24:28.173Z,68.20
2017-07-29T05:26:57.227Z,67.55
2017-07-29T05:29:26.288Z,67.99
2017-07-29T05:31:55.344Z,68.23
2017-07-29T05:34:24.403Z,68.17
2017-07-29T05:36:53.472Z,67.82
2017-07-29T05:39:22.545Z,67.99
2017-07-29T05:41:51.597Z,67.62
2017-07-29T05:44:20.635Z,67.23
2017-07-29T05:46:49.804Z,67.30
2017-07-29T05:49:18.831Z,66.93
2017-07-29T05:51:47.888Z,66.48
2017-07-29T05:54:16.963Z,66.28
2017-07-29T05:56:46.095Z,66.68
2017-07-29T05:59:15.180Z,65.65
2017-07-29T06:01:44.455Z,65.58
2017-07-29T06:04:13.700Z,65.68
2017-07-29T06:06:42.808Z,65.97
2017-07-29T06:09:11.891Z,65.87
2017-07-29T06:11:40.978Z,64.92
2017-07-29T06:14:10.020Z,65.21
2017-07-29T06:16:39.087Z,65.44
2017-07-29T06:19:08.144Z,65.33
2017-07-29T06:21:37.212Z,65.13
2017-07-29T06:24:06.287Z,65.11
2017-07-29T06:26:35.365Z,64.96
2017-07-29T06:29:04.413Z,65.05
2017-07-29T06:31:33.467Z,63.61
2017-07-29T06:34:02.527Z,64.22
2017-07-29T06:36:31.680Z,64.25
2017-07-29T06:39:00.764Z,63.35
2017-07-29T06:41:29.820Z,63.35
2017-07-29T06:43:58.905Z,63.66
2017-07-29T06:46:27.990Z,63.93
2017-07-29T06:48:57.028Z,62.82
2017-07-29T06:51:26.132Z,62.35
2017-07-29T06:53:55.203Z,61.92
2017-07-29T06:56:24.251Z,61.82
2017-07-29T06:58:53.313Z,62.32
2017-07-29T07:01:22.375Z,61.82
2017-07-29T07:03:51.464Z,61.68
2017-07-29T07:06:20.490Z,61.20
2017-07-29T07:08:49.583Z,61.22
2017-07-29T07:11:18.634Z,61.38
2017-07-29T07:13:47.669Z,62.25
2017-07-29T07:16:16.745Z,62.03
2017-07-29T07:18:45.789Z,61.97
2017-07-29T07:21:14.835Z,62.09
2017-07-29T07:23:43.883Z,62.02
2017-07-29T07:26:12.949Z,61.61
2017-07-29T07:28:42.024Z,61.41
2017-07-29T07:31:11.073Z,61.59
2017-07-29T07:33:40.144Z,61.92
2017-07-29T07:36:09.241Z,61.32
2017-07-29T07:38:38.277Z,61.20
2017-07-29T07:41:07.387Z,61.59
2017-07-29T07:43:36.432Z,61.62
2017-07-29T07:46:05.490Z,62.29
2017-07-29T07:48:34.544Z,61.81
2017-07-29T07:51:03.853Z,61.88
2017-07-29T07:53:32.914Z,62.60
2017-07-29T07:56:01.944Z,62.82
2017-07-29T07:58:31.033Z,62.24
2017-07-29T08:01:00.125Z,62.42
2017-07-29T08:03:29.171Z,62.80
2017-07-29T08:05:58.235Z,62.36
2017-07-29T08:08:27.298Z,62.03
2017-07-29T08:10:56.363Z,62.73
2017-07-29T08:13:25.450Z,62.61
2017-07-29T08:15:54.515Z,62.43
2017-07-29T08:18:23.767Z,62.19
2017-07-29T08:20:52.834Z,63.64
2017-07-29T08:23:21.914Z,62.75
2017-07-29T08:25:50.995Z,62.36
2017-07-29T08:28:20.071Z,62.08
2017-07-29T08:30:49.134Z,61.76
2017-07-29T08:33:18.172Z,61.87
2017-07-29T08:35:47.270Z,60.97
2017-07-29T08:38:16.311Z,61.02
2017-07-29T08:40:45.404Z,60.64
2017-07-29T08:43:14.464Z,60.08
2017-07-29T08:45:43.534Z,60.29
2017-07-29T08:48:12.597Z,60.48
2017-07-29T08:50:41.684Z,60.83
2017-07-29T08:53:10.720Z,60.88
2017-07-29T08:55:39.772Z,60.55
2017-07-29T08:58:08.881Z,60.68
2017-07-29T09:00:37.881Z,60.40
2017-07-29T09:03:06.969Z,59.88
2017-07-29T09:05:36.012Z,60.41
2017-07-29T09:08:05.090Z,59.73
2017-07-29T09:10:34.144Z,59.33
2017-07-29T09:13:03.241Z,58.93
2017-07-29T09:15:32.272Z,57.79
2017-07-29T09:18:01.348Z,57.93
2017-07-29T09:20:30.371Z,58.29
2017-07-29T09:22:59.472Z,56.83
2017-07-29T09:25:28.523Z,56.03
2017-07-29T09:27:57.563Z,55.64
2017-07-29T09:30:26.668Z,55.35
2017-07-29T09:32:55.695Z,55.88
2017-07-29T09:35:24.808Z,55.89
2017-07-29T09:37:53.902Z,55.14
2017-07-29T09:40:22.952Z,55.39
2017-07-29T09:42:52.006Z,55.07
2017-07-29T09:45:21.122Z,55.58
2017-07-29T09:47:50.163Z,54.76
2017-07-29T09:50:19.199Z,55.32
2017-07-29T09:52:48.239Z,54.50
2017-07-29T09:55:17.348Z,54.11
2017-07-29T09:57:46.452Z,55.70
2017-07-29T10:00:15.499Z,54.46
2017-07-29T10:02:44.572Z,55.03
2017-07-29T10:05:13.685Z,54.97
2017-07-29T10:07:42.778Z,54.83
2017-07-29T10:10:11.874Z,54.77
2017-07-29T10:12:40.915Z,55.42
2017-07-29T10:15:09.981Z,57.24
2017-07-29T10:17:39.029Z,57.50
2017-07-29T10:20:08.094Z,57.65
2017-07-29T10:22:37.188Z,57.51
2017-07-29T10:25:06.209Z,57.50
2017-07-29T10:27:35.288Z,57.85
2017-07-29T10:30:04.345Z,58.03
2017-07-29T10:32:33.407Z,58.03
2017-07-29T10:35:02.492Z,58.25
2017-07-29T10:37:31.548Z,58.32
2017-07-29T10:40:00.594Z,58.03
2017-07-29T10:42:29.645Z,58.78
2017-07-29T10:44:58.753Z,58.85
2017-07-29T10:47:27.799Z,58.72
2017-07-29T10:49:57.292Z,59.10
2017-07-29T10:52:26.359Z,59.29
2017-07-29T10:54:55.433Z,59.87
2017-07-29T10:57:24.505Z,60.23
2017-07-29T10:59:53.539Z,57.96
2017-07-29T11:02:22.621Z,57.88
2017-07-29T11:04:51.698Z,57.18
2017-07-29T11:07:20.795Z,56.86
2017-07-29T11:09:49.816Z,56.58
2017-07-29T11:12:18.884Z,58.12
2017-07-29T11:14:47.939Z,58.13
2017-07-29T11:17:16.995Z,56.77
2017-07-29T11:19:46.064Z,56.85
2017-07-29T11:22:15.108Z,57.25
2017-07-29T11:24:44.187Z,57.52
2017-07-29T11:27:13.269Z,57.80
2017-07-29T11:29:42.370Z,57.54
2017-07-29T11:32:11.426Z,58.25
2017-07-29T11:34:40.499Z,57.39
2017-07-29T11:37:09.547Z,56.92
2017-07-29T11:39:38.614Z,57.55
2017-07-29T11:42:07.671Z,58.33
2017-07-29T11:44:36.723Z,58.01
2017-07-29T11:47:05.808Z,57.14
2017-07-29T11:49:34.856Z,57.65
2017-07-29T11:52:03.926Z,56.30
2017-07-29T11:54:33.002Z,57.27
2017-07-29T11:57:02.046Z,56.65
2017-07-29T11:59:31.110Z,56.63
2017-07-29T12:02:00.173Z,56.01
2017-07-29T12:04:29.258Z,55.39
2017-07-29T12:06:58.315Z,55.46
2017-07-29T12:09:27.372Z,55.49
2017-07-29T12:11:56.445Z,55.46
2017-07-29T12:14:25.480Z,55.53
2017-07-29T12:16:54.529Z,56.21
2017-07-29T12:19:23.584Z,56.25
2017-07-29T12:21:52.640Z,54.67
2017-07-29T12:24:21.740Z,54.58
2017-07-29T12:26:50.757Z,54.89
2017-07-29T12:29:19.840Z,54.20
2017-07-29T12:31:48.895Z,52.95
2017-07-29T12:34:17.966Z,52.56
2017-07-29T12:36:47.052Z,52.38
2017-07-29T12:39:16.104Z,52.73
2017-07-29T12:41:45.182Z,52.07
2017-07-29T12:44:14.252Z,53.52
2017-07-29T12:46:43.347Z,52.14
2017-07-29T12:49:12.436Z,51.86
2017-07-29T12:51:41.475Z,53.24
2017-07-29T12:54:10.525Z,52.92
2017-07-29T12:56:39.616Z,53.08
2017-07-29T12:59:08.681Z,51.58
2017-07-29T13:01:37.739Z,52.08
2017-07-29T13:04:06.827Z,51.18
2017-07-29T13:06:35.879Z,51.29
2017-07-29T13:09:04.948Z,50.68
2017-07-29T13:11:35.083Z,50.06
2017-07-29T13:14:04.144Z,51.79
2017-07-29T13:16:33.207Z,50.89
2017-07-29T13:19:02.279Z,49.59
2017-07-29T13:21:31.331Z,49.96
2017-07-29T13:24:00.411Z,48.31
2017-07-29T13:26:29.449Z,49.44
2017-07-29T13:28:58.515Z,50.07
2017-07-29T13:31:27.574Z,50.25
2017-07-29T13:33:56.633Z,50.19
2017-07-29T13:36:25.711Z,50.90
2017-07-29T13:38:54.775Z,51.17
2017-07-29T13:41:23.856Z,51.27
2017-07-29T13:43:52.913Z,51.16
2017-07-29T13:46:22.033Z,50.69
2017-07-29T13:48:51.116Z,51.45
2017-07-29T13:51:20.165Z,51.08
2017-07-29T13:53:49.238Z,51.67
2017-07-29T13:56:18.294Z,51.94
2017-07-29T13:58:47.367Z,52.07
2017-07-29T14:01:16.407Z,51.07
2017-07-29T14:03:45.474Z,51.26
2017-07-29T14:06:14.555Z,52.37
2017-07-29T14:08:43.586Z,53.16
2017-07-29T14:11:12.661Z,53.16
2017-07-29T14:13:41.725Z,53.14
2017-07-29T14:16:10.836Z,53.71
2017-07-29T14:18:39.912Z,54.32
2017-07-29T14:21:09.012Z,54.17
2017-07-29T14:23:38.083Z,53.89
2017-07-29T14:26:07.173Z,54.27
2017-07-29T14:28:36.207Z,54.28
2017-07-29T14:31:05.266Z,54.47
2017-07-29T14:33:34.295Z,55.00
2017-07-29T14:36:03.658Z,55.97
2017-07-29T14:38:32.691Z,56.04
2017-07-29T14:41:01.784Z,56.16
2017-07-29T14:43:30.829Z,55.81
2017-07-29T14:45:59.879Z,56.24
2017-07-29T14:48:35.572Z,56.45
2017-07-29T14:51:04.680Z,56.58
2017-07-29T14:53:33.720Z,56.32
2017-07-29T14:56:02.790Z,56.10
2017-07-29T14:58:31.852Z,56.12
2017-07-29T15:01:00.929Z,56.03
2017-07-29T15:03:29.989Z,56.37
2017-07-29T15:05:59.060Z,55.97
2017-07-29T15:08:28.111Z,55.66
2017-07-29T15:10:57.195Z,55.14
2017-07-29T15:13:26.264Z,55.59
2017-07-29T15:15:55.319Z,54.96
2017-07-29T15:18:24.395Z,55.21
2017-07-29T15:20:53.511Z,55.93
2017-07-29T15:23:22.573Z,55.69
2017-07-29T15:25:51.629Z,55.89
2017-07-29T15:28:20.851Z,56.12
2017-07-29T15:30:50.824Z,55.66
2017-07-29T15:33:19.880Z,56.43
2017-07-29T15:35:48.938Z,56.48
2017-07-29T15:38:18.023Z,56.09
2017-07-29T15:40:47.051Z,56.46
2017-07-29T15:43:16.135Z,56.28
2017-07-29T15:45:45.188Z,56.45
2017-07-29T15:48:14.240Z,56.64
2017-07-29T15:50:43.320Z,56.73
2017-07-29T15:53:12.368Z,56.91
2017-07-29T15:55:41.417Z,57.27
2017-07-29T15:58:10.515Z,56.47
2017-07-29T16:00:39.567Z,56.52
2017-07-29T16:03:08.630Z,56.86
2017-07-29T16:05:38.499Z,57.14
2017-07-29T16:08:07.603Z,57.77
2017-07-29T16:10:36.656Z,58.09
2017-07-29T16:13:05.844Z,57.65
2017-07-29T16:15:34.916Z,57.76
2017-07-29T16:18:04.118Z,58.22
2017-07-29T16:20:33.200Z,58.06
2017-07-29T16:23:02.248Z,58.10
2017-07-29T16:25:31.385Z,58.60
2017-07-29T16:28:00.495Z,58.13
2017-07-29T16:30:29.558Z,58.34
2017-07-29T16:32:58.673Z,58.48
2017-07-29T16:35:27.732Z,58.79
2017-07-29T16:37:56.776Z,58.42
2017-07-29T16:40:25.844Z,58.67
2017-07-29T16:42:54.911Z,58.78
2017-07-29T16:45:24.003Z,58.85
2017-07-29T16:47:53.076Z,57.75
2017-07-29T16:50:22.146Z,57.19
2017-07-29T16:52:51.179Z,57.18
2017-07-29T16:55:20.244Z,57.47
2017-07-29T16:57:49.332Z,57.62
2017-07-29T17:00:18.413Z,57.52
2017-07-29T17:02:47.465Z,57.57
2017-07-29T17:05:16.530Z,57.93
2017-07-29T17:07:45.608Z,57.84
2017-07-29T17:10:14.674Z,58.34
2017-07-29T17:12:43.740Z,57.82
2017-07-29T17:15:12.803Z,58.71
2017-07-29T17:17:41.846Z,58.73
2017-07-29T17:20:10.904Z,58.64
2017-07-29T17:22:39.971Z,58.67
2017-07-29T17:25:09.017Z,58.87
2017-07-29T17:27:38.118Z,58.71
2017-07-29T17:30:07.188Z,58.73
2017-07-29T17:32:36.492Z,58.90
2017-07-29T17:35:05.559Z,59.44
2017-07-29T17:37:34.608Z,59.64
2017-07-29T17:40:03.910Z,59.22
2017-07-29T17:42:32.949Z,59.52
2017-07-29T17:45:02.037Z,59.55
2017-07-29T17:47:31.083Z,59.60
2017-07-29T17:50:00.129Z,59.79
2017-07-29T17:52:29.160Z,59.97
2017-07-29T17:54:58.232Z,59.65
2017-07-29T17:57:27.295Z,59.92
2017-07-29T17:59:56.355Z,60.22
2017-07-29T18:02:25.462Z,60.32
2017-07-29T18:04:54.520Z,60.16
2017-07-29T18:07:23.584Z,60.06
2017-07-29T18:09:52.621Z,60.22
2017-07-29T18:12:21.671Z,60.38
2017-07-29T18:14:50.762Z,60.22
2017-07-29T18:17:19.824Z,60.22
2017-07-29T18:19:48.910Z,60.26
2017-07-29T18:22:17.955Z,60.27
2017-07-29T18:24:47.011Z,60.29
2017-07-29T18:27:16.174Z,60.17
2017-07-29T18:29:45.216Z,60.17
2017-07-29T18:32:14.291Z,60.26
2017-07-29T18:34:43.503Z,60.25
2017-07-29T18:37:12.587Z,60.25
2017-07-29T18:39:41.632Z,60.32
2017-07-29T18:42:10.736Z,60.62
2017-07-29T18:44:39.766Z,60.29
2017-07-29T18:47:08.838Z,60.49
2017-07-29T18:49:37.887Z,60.77
2017-07-29T18:52:06.965Z,61.01
2017-07-29T18:54:36.022Z,61.04
2017-07-29T18:57:05.070Z,61.70
2017-07-29T18:59:34.120Z,61.82
2017-07-29T19:02:03.168Z,62.23
2017-07-29T19:04:32.221Z,62.81
2017-07-29T19:07:01.275Z,63.42
2017-07-29T19:09:30.365Z,63.94
2017-07-29T19:11:59.400Z,63.79
2017-07-29T19:14:28.474Z,63.68
2017-07-29T19:16:57.555Z,64.05
2017-07-29T19:19:26.672Z,64.19
2017-07-29T19:21:55.753Z,64.53
2017-07-29T19:24:24.772Z,64.61
2017-07-29T19:26:53.820Z,65.22
2017-07-29T19:29:22.889Z,65.59
2017-07-29T19:31:51.944Z,65.15
2017-07-29T19:34:21.016Z,65.59
2017-07-29T19:36:50.052Z,66.01
2017-07-29T19:39:19.129Z,65.99
2017-07-29T19:41:48.180Z,66.09
2017-07-29T19:44:17.223Z,65.92
2017-07-29T19:46:46.298Z,66.35
2017-07-29T19:49:15.358Z,66.19
2017-07-29T19:51:44.426Z,66.38
2017-07-29T19:54:13.526Z,66.44
2017-07-29T19:56:42.584Z,66.38
2017-07-29T19:59:11.683Z,66.62
2017-07-29T20:01:40.840Z,66.87
2017-07-29T20:04:09.893Z,67.03
2017-07-29T20:06:38.955Z,67.20
2017-07-29T20:09:08.025Z,67.20
2017-07-29T20:11:37.179Z,67.31
2017-07-29T20:14:06.255Z,67.23
2017-07-29T20:16:35.324Z,67.41
2017-07-29T20:19:04.417Z,67.20
2017-07-29T20:21:33.527Z,67.16
2017-07-29T20:24:02.597Z,67.09
2017-07-29T20:26:31.629Z,67.06
2017-07-29T20:29:00.728Z,67.04
2017-07-29T20:31:29.775Z,67.11
2017-07-29T20:33:58.844Z,67.20
2017-07-29T20:36:27.897Z,67.13
2017-07-29T20:38:56.941Z,66.95
2017-07-29T20:41:26.006Z,67.11
2017-07-29T20:43:55.073Z,66.84
2017-07-29T20:46:24.114Z,66.80
2017-07-29T20:48:53.175Z,67.04
2017-07-29T20:51:22.256Z,67.12
2017-07-29T20:53:51.317Z,66.42
2017-07-29T20:56:20.392Z,66.46
2017-07-29T20:58:49.425Z,66.17
2017-07-29T21:01:18.464Z,66.15
2017-07-29T21:03:47.516Z,65.96
2017-07-29T21:06:16.787Z,66.04
2017-07-29T21:08:45.823Z,65.32
2017-07-29T21:11:14.901Z,65.57
2017-07-29T21:13:43.954Z,65.36
2017-07-29T21:16:13.036Z,65.36
2017-07-29T21:18:42.061Z,65.46
2017-07-29T21:21:11.116Z,65.53
2017-07-29T21:23:40.204Z,65.25
2017-07-29T21:26:10.913Z,65.14
2017-07-29T21:28:39.944Z,64.99
2017-07-29T21:31:09.015Z,64.88
2017-07-29T21:33:38.084Z,64.47
2017-07-29T21:36:07.153Z,64.72
2017-07-29T21:38:36.185Z,64.45
2017-07-29T21:41:05.264Z,64.51
2017-07-29T21:43:34.283Z,64.42
2017-07-29T21:46:03.353Z,64.20
2017-07-29T21:48:32.425Z,64.18
2017-07-29T21:51:01.503Z,64.22
2017-07-29T21:53:30.564Z,64.19
2017-07-29T21:55:59.600Z,64.01
2017-07-29T21:58:28.657Z,63.89
2017-07-29T22:00:57.715Z,64.27
2017-07-29T22:03:26.762Z,63.87
2017-07-29T22:05:55.819Z,63.67
2017-07-29T22:08:24.864Z,63.53
2017-07-29T22:10:53.936Z,63.37
2017-07-29T22:13:22.972Z,63.34
2017-07-29T22:15:52.024Z,63.17
2017-07-29T22:18:21.093Z,63.12
2017-07-29T22:20:50.322Z,62.94
2017-07-29T22:23:19.403Z,62.93
2017-07-29T22:25:48.432Z,62.82
2017-07-29T22:28:17.467Z,62.66
2017-07-29T22:30:46.520Z,63.34
2017-07-29T22:33:15.586Z,64.66
2017-07-29T22:35:44.652Z,64.88
2017-07-29T22:38:13.714Z,65.89
2017-07-29T22:40:42.755Z,66.79
2017-07-29T22:43:11.865Z,67.22
2017-07-29T22:45:40.889Z,68.19
2017-07-29T22:48:10.201Z,68.16
2017-07-29T22:50:39.248Z,68.24
2017-07-29T22:53:08.328Z,67.94
2017-07-29T22:55:37.390Z,68.21
2017-07-29T22:58:06.435Z,68.37
2017-07-29T23:00:35.511Z,69.09
2017-07-29T23:03:04.612Z,69.11
2017-07-29T23:05:33.664Z,68.85
2017-07-29T23:08:02.813Z,68.98
2017-07-29T23:10:31.881Z,68.82
2017-07-29T23:13:00.928Z,69.16
2017-07-29T23:15:30.794Z,69.27
2017-07-29T23:17:59.878Z,69.17
2017-07-29T23:20:28.924Z,69.35
2017-07-29T23:22:57.976Z,68.98
2017-07-29T23:25:27.244Z,69.23
2017-07-29T23:27:56.319Z,69.02
2017-07-29T23:30:25.353Z,69.01
2017-07-29T23:32:54.443Z,69.02
2017-07-29T23:35:23.520Z,69.47
2017-07-29T23:37:52.542Z,69.34
2017-07-29T23:40:21.610Z,69.42
2017-07-29T23:42:50.671Z,69.42
2017-07-29T23:45:19.889Z,69.70
2017-07-29T23:47:48.937Z,69.50
2017-07-29T23:50:18.006Z,69.68
2017-07-29T23:52:47.046Z,69.58
2017-07-29T23:55:16.208Z,69.54
2017-07-29T23:57:45.273Z,69.48
